createdAt,value
2023-03-29T00:00:47.279Z,45.96
2023-03-29T00:03:17.258Z,46.71
2023-03-29T00:05:44.909Z,46.83
2023-03-29T00:08:14.766Z,46.54
2023-03-29T00:10:43.877Z,46.83
2023-03-29T00:13:12.967Z,47.98
2023-03-29T00:15:44.331Z,47.25
2023-03-29T00:18:15.936Z,48.47
2023-03-29T00:20:53.853Z,47.38
2023-03-29T00:23:20.395Z,48.71
2023-03-29T00:25:46.971Z,50.17
2023-03-29T00:28:14.730Z,49.27
2023-03-29T00:30:41.488Z,49.46
2023-03-29T00:33:08.657Z,50.56
2023-03-29T00:35:38.596Z,50.98
2023-03-29T00:38:08.292Z,51.52
2023-03-29T00:40:42.323Z,51.29
2023-03-29T00:43:15.932Z,51.65
2023-03-29T00:45:42.549Z,52.30
2023-03-29T00:48:15.874Z,52.58
2023-03-29T00:51:19.015Z,52.81
2023-03-29T00:53:59.063Z,53.42
2023-03-29T00:56:41.785Z,52.22
2023-03-29T00:59:38.185Z,51.92
2023-03-29T01:02:10.688Z,53.25
2023-03-29T01:04:45.638Z,53.03
2023-03-29T01:07:21.745Z,52.30
2023-03-29T01:09:56.000Z,53.32
2023-03-29T01:12:30.046Z,52.64
2023-03-29T01:15:02.529Z,51.79
2023-03-29T01:17:31.695Z,53.21
2023-03-29T01:20:19.151Z,53.21
2023-03-29T01:22:49.076Z,53.22
2023-03-29T01:26:00.217Z,53.40
2023-03-29T01:28:45.873Z,53.95
2023-03-29T01:31:21.962Z,53.82
2023-03-29T01:34:00.461Z,54.86
2023-03-29T01:36:38.265Z,55.44
2023-03-29T01:39:07.077Z,55.41
2023-03-29T01:42:05.626Z,55.11
2023-03-29T01:44:47.395Z,54.37
2023-03-29T01:47:32.500Z,55.28
2023-03-29T01:49:59.219Z,54.50
2023-03-29T01:52:37.604Z,54.99
2023-03-29T01:55:14.858Z,54.78
2023-03-29T01:57:48.575Z,54.30
2023-03-29T02:00:19.212Z,54.23
2023-03-29T02:02:50.422Z,53.36
2023-03-29T02:05:22.458Z,53.25
2023-03-29T02:07:52.998Z,53.26
2023-03-29T02:10:21.424Z,53.35
2023-03-29T02:12:48.236Z,52.78
2023-03-29T02:15:21.468Z,52.72
2023-03-29T02:17:49.496Z,52.85
2023-03-29T02:20:20.570Z,54.36
2023-03-29T02:22:52.206Z,53.02
2023-03-29T02:25:22.531Z,53.74
2023-03-29T02:27:49.501Z,54.39
2023-03-29T02:30:18.797Z,54.47
2023-03-29T02:32:52.360Z,54.32
2023-03-29T02:35:34.364Z,54.06
2023-03-29T02:38:06.456Z,55.83
2023-03-29T02:40:37.687Z,55.54
2023-03-29T02:43:07.725Z,56.06
2023-03-29T02:45:39.947Z,55.36
2023-03-29T02:48:12.842Z,55.44
2023-03-29T02:50:44.963Z,54.01
2023-03-29T02:53:24.208Z,52.88
2023-03-29T02:55:51.762Z,52.56
2023-03-29T02:58:20.642Z,53.46
2023-03-29T03:00:49.057Z,53.08
2023-03-29T03:03:15.889Z,52.97
2023-03-29T03:05:47.754Z,53.61
2023-03-29T03:08:14.524Z,53.30
2023-03-29T03:10:41.453Z,54.42
2023-03-29T03:13:12.895Z,55.61
2023-03-29T03:15:42.970Z,55.17
2023-03-29T03:18:10.642Z,56.00
2023-03-29T03:20:37.306Z,57.00
2023-03-29T03:23:08.978Z,57.74
2023-03-29T03:25:38.186Z,59.13
2023-03-29T03:28:05.096Z,58.26
2023-03-29T03:30:31.734Z,57.98
2023-03-29T03:32:58.318Z,58.34
2023-03-29T03:35:25.295Z,57.79
2023-03-29T03:37:54.195Z,59.26
2023-03-29T03:40:20.871Z,58.23
2023-03-29T03:42:50.022Z,59.28
2023-03-29T03:45:16.725Z,60.13
2023-03-29T03:47:48.670Z,59.92
2023-03-29T03:50:15.482Z,59.10
2023-03-29T03:52:44.850Z,57.93
2023-03-29T03:55:12.114Z,59.68
2023-03-29T03:57:38.659Z,58.17
2023-03-29T04:00:21.069Z,58.79
2023-03-29T04:02:48.544Z,58.82
2023-03-29T04:05:20.534Z,58.87
2023-03-29T04:07:52.606Z,59.63
2023-03-29T04:10:19.292Z,60.84
2023-03-29T04:12:46.009Z,59.98
2023-03-29T04:15:17.871Z,59.56
2023-03-29T04:17:47.490Z,60.40
2023-03-29T04:20:18.809Z,59.42
2023-03-29T04:22:45.380Z,59.85
2023-03-29T04:25:14.445Z,59.32
2023-03-29T04:27:44.796Z,60.36
2023-03-29T04:30:12.318Z,58.90
2023-03-29T04:32:38.928Z,59.60
2023-03-29T04:35:06.157Z,59.04
2023-03-29T04:37:35.198Z,59.53
2023-03-29T04:40:02.535Z,60.69
2023-03-29T04:42:29.454Z,61.53
2023-03-29T04:44:58.552Z,62.82
2023-03-29T04:47:25.236Z,62.43
2023-03-29T04:49:51.824Z,62.38
2023-03-29T04:52:18.402Z,62.00
2023-03-29T04:54:47.511Z,62.76
2023-03-29T04:57:17.101Z,62.79
2023-03-29T04:59:46.462Z,63.20
2023-03-29T05:02:15.607Z,63.41
2023-03-29T05:04:42.216Z,62.56
2023-03-29T05:07:08.872Z,61.52
2023-03-29T05:09:35.671Z,62.21
2023-03-29T05:12:04.981Z,62.96
2023-03-29T05:14:31.564Z,62.71
2023-03-29T07:25:48.305Z,40.74
2023-03-29T07:28:17.582Z,40.77
2023-03-29T07:30:44.200Z,40.97
2023-03-29T07:33:10.854Z,39.87
2023-03-29T07:35:38.333Z,39.65
2023-03-29T07:38:05.665Z,40.88
2023-03-29T07:40:34.622Z,39.52
2023-03-29T07:43:09.111Z,40.27
2023-03-29T07:45:42.360Z,42.65
2023-03-29T07:48:11.430Z,43.56
2023-03-29T07:50:40.363Z,43.95
2023-03-29T07:53:09.107Z,43.17
2023-03-29T07:55:35.978Z,42.51
2023-03-29T07:58:03.588Z,43.22
2023-03-29T08:00:33.172Z,41.14
2023-03-29T08:03:03.790Z,41.29
2023-03-29T08:05:41.192Z,40.48
2023-03-29T08:08:11.277Z,41.07
2023-03-29T08:10:56.116Z,40.92
2023-03-29T08:13:22.714Z,41.30
2023-03-29T08:15:50.318Z,41.19
2023-03-29T08:18:17.188Z,41.64
2023-03-29T08:20:46.070Z,41.15
2023-03-29T08:23:14.865Z,40.62
2023-03-29T08:25:49.859Z,39.47
2023-03-29T08:28:19.097Z,39.54
2023-03-29T08:30:48.205Z,40.98
2023-03-29T08:33:26.128Z,38.96
2023-03-29T08:35:53.174Z,40.61
2023-03-29T08:38:19.942Z,38.93
2023-03-29T08:40:48.835Z,38.29
2023-03-29T08:43:42.747Z,37.84
2023-03-29T08:46:15.773Z,38.85
2023-03-29T08:48:51.380Z,38.72
2023-03-29T08:51:23.105Z,39.42
2023-03-29T08:53:56.573Z,36.96
2023-03-29T08:56:28.069Z,37.53
2023-03-29T08:58:59.363Z,37.85
2023-03-29T09:01:38.329Z,36.52
2023-03-29T09:04:23.787Z,37.85
2023-03-29T09:06:51.779Z,36.94
2023-03-29T10:10:11.315Z,34.86
2023-03-29T10:12:38.039Z,34.88
2023-03-29T10:15:30.428Z,33.06
2023-03-29T10:18:07.476Z,33.39
2023-03-29T10:20:39.952Z,33.82
2023-03-29T10:23:10.870Z,35.25
2023-03-29T10:25:45.521Z,32.82
2023-03-29T10:28:21.214Z,34.30
2023-03-29T10:30:57.138Z,34.20
2023-03-29T10:33:29.730Z,32.74
2023-03-29T10:35:57.679Z,34.02
2023-03-29T10:38:28.002Z,34.24
2023-03-29T10:41:05.382Z,34.64
2023-03-29T10:43:41.855Z,34.09
2023-03-29T10:46:19.722Z,33.84
2023-03-29T10:48:51.991Z,34.10
2023-03-29T10:51:19.381Z,35.12
2023-03-29T10:53:46.654Z,35.86
2023-03-29T10:56:42.191Z,35.51
2023-03-29T10:59:17.985Z,35.72
2023-03-29T11:01:51.674Z,35.36
2023-03-29T11:04:46.500Z,35.15
2023-03-29T11:07:31.636Z,34.22
2023-03-29T11:10:24.717Z,34.74
2023-03-29T11:12:57.552Z,35.56
2023-03-29T11:15:55.122Z,33.90
2023-03-29T11:18:30.588Z,33.69
2023-03-29T13:12:43.679Z,36.07
2023-03-29T13:15:19.465Z,36.48
2023-03-29T13:17:52.245Z,37.49
2023-03-29T13:20:40.625Z,36.29
2023-03-29T13:23:19.245Z,36.17
2023-03-29T13:26:01.408Z,37.00
2023-03-29T13:28:33.165Z,36.77
2023-03-29T13:31:24.463Z,36.74
2023-03-29T18:40:56.160Z,51.83
2023-03-29T18:43:22.750Z,52.73
2023-03-29T18:45:53.981Z,52.34
2023-03-29T18:48:20.624Z,53.44
2023-03-29T18:50:47.216Z,52.90
2023-03-29T18:53:14.431Z,52.78
2023-03-29T18:55:44.988Z,53.69
2023-03-29T18:58:15.989Z,54.32
2023-03-29T19:00:42.920Z,54.48
2023-03-29T19:03:09.840Z,54.81
2023-03-29T19:05:39.987Z,54.53
2023-03-29T19:08:08.550Z,55.36
2023-03-29T19:10:39.262Z,56.82
2023-03-29T19:13:08.837Z,56.50
2023-03-29T19:15:40.432Z,56.14
2023-03-29T19:18:07.967Z,55.34
2023-03-29T19:20:40.846Z,56.74
2023-03-29T19:23:07.444Z,55.19
2023-03-29T19:25:36.545Z,56.75
2023-03-29T19:28:04.934Z,56.21
2023-03-29T19:30:34.844Z,56.10
2023-03-29T19:33:06.403Z,55.48
2023-03-29T19:35:33.032Z,56.11
2023-03-29T19:37:59.680Z,56.94
2023-03-29T19:40:28.524Z,55.58
2023-03-29T19:42:55.085Z,56.19
2023-03-29T19:45:23.888Z,54.97
2023-03-29T19:47:57.727Z,56.10
2023-03-29T19:50:27.675Z,55.12
2023-03-29T19:52:54.563Z,54.92
2023-03-29T19:55:21.809Z,55.72
2023-03-29T19:57:53.426Z,56.66
2023-03-29T20:00:24.433Z,56.03
2023-03-29T20:02:52.572Z,56.45
2023-03-29T20:05:21.625Z,56.95
2023-03-29T20:07:54.370Z,58.29
2023-03-29T20:10:21.212Z,57.59
2023-03-29T20:12:47.902Z,57.26
2023-03-29T20:15:16.953Z,56.43
2023-03-29T20:17:43.566Z,56.09
2023-03-29T20:20:11.998Z,57.21
2023-03-29T20:22:42.075Z,58.49
2023-03-29T20:25:11.952Z,58.19
2023-03-29T20:27:42.774Z,57.52
2023-03-29T20:30:16.472Z,58.70
2023-03-29T20:32:45.405Z,57.99
2023-03-29T20:35:12.260Z,57.98
2023-03-29T20:37:43.359Z,58.21
2023-03-29T20:40:11.255Z,57.81
2023-03-29T20:42:38.741Z,58.55
2023-03-29T20:45:06.618Z,58.04
2023-03-29T20:47:33.264Z,58.21
2023-03-29T20:50:04.134Z,57.88
2023-03-29T20:52:30.744Z,58.53
2023-03-29T20:55:01.860Z,58.46
2023-03-29T20:57:30.319Z,59.15
2023-03-29T20:59:59.401Z,59.37
2023-03-29T21:02:26.323Z,59.34
2023-03-29T21:05:00.187Z,60.25
2023-03-29T21:07:26.839Z,61.33
2023-03-29T21:09:54.160Z,60.47
2023-03-29T21:12:20.835Z,60.25
2023-03-29T21:14:49.716Z,59.76
2023-03-29T21:17:16.382Z,59.96
2023-03-29T21:19:42.903Z,59.59
2023-03-29T21:22:09.486Z,59.13
2023-03-29T21:24:38.558Z,59.11
2023-03-29T21:27:08.450Z,59.25
2023-03-29T21:29:37.235Z,59.84
2023-03-29T21:32:04.602Z,61.96
2023-03-29T21:34:33.656Z,61.40
2023-03-29T21:37:00.515Z,60.51
2023-03-29T21:39:27.805Z,60.17
2023-03-29T21:41:54.434Z,60.62
2023-03-29T21:44:21.049Z,59.95
2023-03-29T21:46:49.868Z,59.25
2023-03-29T21:49:19.454Z,59.81
2023-03-29T21:51:46.447Z,59.56
2023-03-29T21:54:15.577Z,59.71
2023-03-29T21:56:42.493Z,59.56
2023-03-29T21:59:09.100Z,60.39
2023-03-29T22:01:35.711Z,60.08
2023-03-29T22:04:05.186Z,60.32
2023-03-29T22:06:34.113Z,59.25
2023-03-29T22:09:06.384Z,59.68
2023-03-29T22:11:34.677Z,59.83
2023-03-29T22:14:04.121Z,60.05
2023-03-29T22:16:31.412Z,61.20
2023-03-29T22:18:58.262Z,61.13
2023-03-29T22:21:27.138Z,61.50
2023-03-29T22:23:58.519Z,62.97
2023-03-29T22:26:32.779Z,62.06
2023-03-29T22:29:00.410Z,60.67
2023-03-29T22:31:28.643Z,61.14
2023-03-29T22:33:55.782Z,60.35
2023-03-29T22:36:27.674Z,61.02
2023-03-29T22:38:55.065Z,60.93
2023-03-29T22:41:23.751Z,62.06
2023-03-29T22:43:53.947Z,62.90
2023-03-29T22:46:25.444Z,62.50
2023-03-29T22:48:54.399Z,62.09
2023-03-29T22:51:21.483Z,62.69
2023-03-29T22:53:48.096Z,63.07
2023-03-29T22:56:17.814Z,63.03
2023-03-29T22:58:46.903Z,63.67
2023-03-29T23:01:15.820Z,64.16
2023-03-29T23:03:42.447Z,65.05
2023-03-29T23:06:09.250Z,63.94
2023-03-29T23:08:38.374Z,64.33
2023-03-29T23:11:07.560Z,65.09
2023-03-29T23:13:36.303Z,64.71
2023-03-29T23:16:03.839Z,65.06
2023-03-29T23:18:34.950Z,65.22
2023-03-29T23:21:02.461Z,64.86
2023-03-29T23:23:31.917Z,65.08
2023-03-29T23:26:04.102Z,65.33
2023-03-29T23:28:34.547Z,65.06
2023-03-29T23:31:11.768Z,66.51
2023-03-29T23:33:41.257Z,65.52
2023-03-29T23:36:12.969Z,64.90
2023-03-29T23:38:43.542Z,63.66
2023-03-29T23:41:13.753Z,64.58
2023-03-29T23:43:42.478Z,63.74
2023-03-29T23:46:10.762Z,63.88
2023-03-29T23:48:42.286Z,64.00
2023-03-29T23:51:09.849Z,64.26
2023-03-29T23:53:38.848Z,64.58
2023-03-29T23:56:06.123Z,65.16
2023-03-29T23:58:35.994Z,64.70
